createdAt,value
2016-10-24T07:14:46.099Z,6.08
2016-10-24T07:15:46.063Z,6.02
2016-10-24T07:16:46.050Z,5.96
2016-10-24T07:17:46.064Z,6.02
2016-10-24T07:18:46.035Z,6.2
2016-10-24T07:19:46.013Z,5.99
2016-10-24T07:20:46.013Z,6.17
2016-10-24T07:21:46.003Z,6.43
2016-10-24T07:22:46.003Z,6.57
2016-10-24T07:23:45.982Z,6.79
2016-10-24T07:24:45.967Z,7.21
2016-10-24T07:25:45.972Z,7.29
2016-10-24T07:26:45.983Z,7.37
2016-10-24T07:27:45.929Z,7.48
2016-10-24T07:28:45.932Z,7.24
2016-10-24T07:29:45.916Z,7.29
2016-10-24T07:30:45.909Z,7.24
2016-10-24T07:31:45.892Z,7.23
2016-10-24T07:32:45.883Z,6.99
2016-10-24T07:33:45.926Z,6.96
2016-10-24T07:34:45.862Z,6.87
2016-10-24T07:35:45.864Z,6.82
2016-10-24T07:36:45.839Z,6.73
2016-10-24T07:37:45.825Z,6.81
2016-10-24T07:38:45.812Z,6.87
2016-10-24T07:39:45.808Z,6.72
2016-10-24T07:40:45.796Z,6.69
2016-10-24T07:41:45.801Z,6.73
2016-10-24T07:42:45.780Z,6.68
2016-10-24T07:43:45.826Z,6.71
2016-10-24T07:44:45.755Z,6.83
2016-10-24T07:45:45.747Z,7.01
2016-10-24T07:46:45.729Z,6.89
2016-10-24T07:47:45.728Z,7.27
2016-10-24T07:48:45.725Z,7.62
2016-10-24T07:49:45.709Z,7.32
2016-10-24T07:50:45.695Z,7.42
2016-10-24T07:51:45.687Z,7.47
2016-10-24T07:52:45.675Z,7.6
2016-10-24T07:53:45.665Z,7.88
2016-10-24T07:54:45.648Z,7.96
2016-10-24T07:55:45.641Z,7.99
2016-10-24T07:56:45.632Z,8.18
2016-10-24T07:57:45.653Z,8.49
2016-10-24T07:58:45.627Z,8.46
2016-10-24T07:59:45.607Z,8.43
2016-10-24T08:00:45.591Z,8.68
2016-10-24T08:01:45.579Z,8.03
2016-10-24T08:02:45.575Z,7.84
2016-10-24T08:03:45.577Z,8.34
2016-10-24T08:04:45.569Z,8.29
2016-10-24T08:05:45.555Z,8.34
2016-10-24T08:06:45.528Z,8.25
2016-10-24T08:07:45.538Z,8.03
2016-10-24T08:08:45.526Z,7.89
2016-10-24T08:09:45.492Z,8.12
2016-10-24T08:10:45.483Z,8.46
2016-10-24T08:11:45.487Z,8.45
2016-10-24T08:12:45.448Z,8.31
2016-10-24T08:13:45.472Z,8.09
2016-10-24T08:14:45.444Z,8.29
2016-10-24T08:15:45.483Z,8.13
2016-10-24T08:16:45.425Z,7.91
2016-10-24T08:17:45.409Z,7.79
2016-10-24T08:18:45.415Z,7.58
2016-10-24T08:19:45.381Z,7.7
2016-10-24T08:20:45.391Z,8.04
2016-10-24T08:21:45.367Z,7.45
2016-10-24T08:22:45.344Z,7.58
2016-10-24T08:23:45.363Z,7.51
2016-10-24T08:24:45.333Z,7.32
2016-10-24T08:25:45.327Z,7.29
2016-10-24T08:26:45.317Z,7.51
2016-10-24T08:27:45.321Z,7.41
2016-10-24T08:28:45.320Z,7.45
2016-10-24T08:29:45.285Z,7.5
2016-10-24T08:30:45.276Z,7.37
2016-10-24T08:31:45.269Z,7.66
2016-10-24T08:32:45.257Z,7.7
2016-10-24T08:33:45.252Z,8.07
2016-10-24T08:34:45.240Z,7.96
2016-10-24T08:35:45.213Z,8.06
2016-10-24T08:36:45.210Z,8.03
2016-10-24T08:37:45.185Z,8.07
2016-10-24T08:38:45.201Z,8
2016-10-24T08:39:45.180Z,8.02
2016-10-24T08:40:45.169Z,8.12
2016-10-24T08:41:45.176Z,8.43
2016-10-24T08:42:45.141Z,8.65
2016-10-24T08:43:45.136Z,8.63
2016-10-24T08:44:45.134Z,8.6
2016-10-24T08:45:45.112Z,8.34
2016-10-24T08:46:45.113Z,7.89
2016-10-24T08:47:45.103Z,7.91
2016-10-24T08:48:45.084Z,8.06
2016-10-24T08:49:45.090Z,8.06
2016-10-24T08:50:45.058Z,7.81
2016-10-24T08:51:45.072Z,7.86
2016-10-24T08:52:45.048Z,7.94
2016-10-24T08:53:45.039Z,8
2016-10-24T08:54:45.031Z,7.84
2016-10-24T08:55:45.027Z,7.55
2016-10-24T08:56:45.012Z,7.05
2016-10-24T08:57:44.982Z,7.27
2016-10-24T08:58:45.003Z,7.76
2016-10-24T08:59:44.962Z,8.29
2016-10-24T09:00:44.955Z,8.1
2016-10-24T09:01:44.965Z,7.81
2016-10-24T09:02:44.943Z,7.55
2016-10-24T09:03:44.932Z,7.41
2016-10-24T09:04:44.929Z,7.23
2016-10-24T09:05:44.903Z,7.15
2016-10-24T09:06:44.900Z,6.93
2016-10-24T09:07:44.895Z,6.83
2016-10-24T09:08:44.862Z,6.72
2016-10-24T09:09:44.888Z,6.79
2016-10-24T09:10:44.839Z,6.78
2016-10-24T09:11:44.844Z,6.75
2016-10-24T09:12:44.848Z,6.68
2016-10-24T09:13:44.830Z,7.01
2016-10-24T09:14:44.810Z,7.07
2016-10-24T09:15:44.819Z,6.99
2016-10-24T09:16:44.814Z,7.04
2016-10-24T09:17:44.781Z,7.12
2016-10-24T09:18:44.776Z,7.11
2016-10-24T09:19:44.742Z,7.14
2016-10-24T09:20:44.766Z,7.32
2016-10-24T09:21:44.720Z,7.41
2016-10-24T09:22:44.734Z,7.42
2016-10-24T09:23:44.725Z,7
2016-10-24T09:24:44.696Z,6.53
2016-10-24T09:25:44.694Z,6.19
2016-10-24T09:26:44.688Z,6.28
2016-10-24T09:27:44.668Z,6.55
2016-10-24T09:28:44.642Z,6.58
2016-10-24T09:29:44.676Z,6.87
2016-10-24T09:30:44.831Z,6.89
2016-10-24T09:31:44.607Z,6.72
2016-10-24T09:32:44.610Z,6.71
2016-10-24T09:33:44.613Z,6.63
2016-10-24T09:34:44.604Z,6.58
2016-10-24T09:35:44.599Z,6.68
2016-10-24T09:36:44.562Z,6.64
2016-10-24T09:37:44.561Z,6.58
2016-10-24T09:38:44.546Z,6.73
2016-10-24T09:39:44.524Z,6.96
2016-10-24T09:40:44.541Z,7.04
2016-10-24T09:41:44.539Z,7.16
2016-10-24T09:42:44.492Z,7.3
2016-10-24T09:43:44.491Z,7.09
2016-10-24T09:44:44.475Z,6.87
2016-10-24T09:45:44.465Z,7.04
2016-10-24T09:46:44.438Z,7.01
2016-10-24T09:47:44.425Z,6.36
2016-10-24T09:48:44.444Z,6.43
2016-10-24T09:49:44.433Z,6.71
2016-10-24T09:50:44.416Z,6.9
2016-10-24T09:51:44.423Z,6.83
2016-10-24T09:52:44.382Z,6.97
2016-10-24T09:53:44.387Z,6.51
2016-10-24T09:54:44.371Z,6.61
2016-10-24T09:55:44.358Z,6.71
2016-10-24T09:56:44.328Z,6.87
2016-10-24T09:57:44.336Z,6.75
2016-10-24T09:58:44.335Z,6.83
2016-10-24T09:59:44.290Z,6.68
2016-10-24T10:00:44.314Z,6.76
2016-10-24T10:01:44.296Z,6.86
2016-10-24T10:02:44.273Z,6.89
2016-10-24T10:03:44.259Z,6.87
2016-10-24T10:04:44.249Z,6.73
2016-10-24T10:05:44.241Z,6.73
2016-10-24T10:06:44.246Z,6.68
2016-10-24T10:07:44.207Z,6.79
2016-10-24T10:08:44.208Z,6.69
2016-10-24T10:09:44.185Z,6.69
2016-10-24T10:10:44.192Z,6.58
2016-10-24T10:11:44.175Z,6.64
2016-10-24T10:12:44.162Z,6.97
2016-10-24T10:13:44.140Z,6.58
2016-10-24T10:14:44.156Z,6.71
2016-10-24T10:15:44.116Z,6.72
2016-10-24T10:16:44.098Z,6.83
2016-10-24T10:17:44.106Z,6.94
2016-10-24T10:18:44.110Z,6.97
2016-10-24T10:19:44.073Z,7.09
2016-10-24T10:20:44.080Z,6.83
2016-10-24T10:21:44.059Z,7.14
2016-10-24T10:22:44.057Z,7.48
2016-10-24T10:23:44.051Z,7.42
2016-10-24T10:24:44.334Z,7.41
2016-10-24T10:25:44.018Z,7.3
2016-10-24T10:26:43.996Z,6.99
2016-10-24T10:27:43.993Z,7
2016-10-24T10:28:43.996Z,6.82
2016-10-24T10:29:43.960Z,7.01
2016-10-24T10:30:43.963Z,6.54
2016-10-24T10:31:43.926Z,6.35
2016-10-24T10:32:43.955Z,6.69
2016-10-24T10:33:43.935Z,6.79
2016-10-24T10:34:43.923Z,6.99
2016-10-24T10:35:43.916Z,6.97
2016-10-24T10:36:43.889Z,6.27
2016-10-24T10:37:43.890Z,6.27
2016-10-24T10:38:43.869Z,6.69
2016-10-24T10:39:43.865Z,6.97
2016-10-24T10:40:43.840Z,6.5
2016-10-24T10:41:43.834Z,6.03
2016-10-24T10:42:43.840Z,6.32
2016-10-24T10:43:43.824Z,5.88
2016-10-24T10:44:43.796Z,6.1
2016-10-24T10:45:43.775Z,6.28
2016-10-24T10:46:43.775Z,6.55
2016-10-24T10:47:43.760Z,6.69
2016-10-24T10:48:43.761Z,6.53
2016-10-24T10:49:44.042Z,6.54
2016-10-24T10:50:43.743Z,6.03
2016-10-24T10:51:43.734Z,6.11
2016-10-24T10:52:44.338Z,6.21
2016-10-24T10:53:43.693Z,6.61
2016-10-24T10:54:43.687Z,6.6
2016-10-24T10:55:43.755Z,6.79
2016-10-24T10:56:43.675Z,6.75
2016-10-24T10:57:43.637Z,6.97
2016-10-24T10:58:43.639Z,6.99
2016-10-24T10:59:43.629Z,6.83
2016-10-24T11:00:43.614Z,7.04
2016-10-24T11:01:43.596Z,6.72
2016-10-24T11:02:43.601Z,6.33
2016-10-24T11:03:43.574Z,6.6
2016-10-24T11:04:43.570Z,6.83
2016-10-24T11:05:43.553Z,6.63
2016-10-24T11:06:43.545Z,6.21
2016-10-24T11:07:43.583Z,6.2
2016-10-24T11:08:43.524Z,6.55
2016-10-24T11:09:43.494Z,6.81
2016-10-24T11:10:43.494Z,6.97
2016-10-24T11:11:43.467Z,6.86
2016-10-24T11:12:43.492Z,6.51
2016-10-24T11:13:43.480Z,6.57
2016-10-24T11:14:43.436Z,6.97
2016-10-24T11:15:43.431Z,7.26
2016-10-24T11:16:43.435Z,6.5
2016-10-24T11:17:43.426Z,6.83
2016-10-24T11:18:43.389Z,7
2016-10-24T11:19:43.390Z,6.97
2016-10-24T11:20:43.383Z,7.14
2016-10-24T11:21:43.411Z,7.58
2016-10-24T11:22:43.356Z,7.63
2016-10-24T11:23:43.355Z,7.99
2016-10-24T11:24:43.342Z,7.76
2016-10-24T11:25:43.344Z,7
2016-10-24T11:26:43.308Z,7.54
2016-10-24T11:27:43.317Z,7.77
2016-10-24T11:28:43.321Z,7.57
2016-10-24T11:29:43.279Z,7.39
2016-10-24T11:30:43.279Z,7.41
2016-10-24T11:31:43.279Z,7.09
2016-10-24T11:32:43.247Z,6.83
2016-10-24T11:33:43.228Z,7.26
2016-10-24T11:34:43.247Z,7.54
2016-10-24T11:35:43.223Z,7.5
2016-10-24T11:36:43.220Z,7.29
2016-10-24T11:37:43.187Z,7.01
2016-10-24T11:38:43.182Z,7.7
2016-10-24T11:39:43.179Z,7.79
2016-10-24T11:40:43.192Z,7.81
2016-10-24T11:41:43.184Z,7.81
2016-10-24T11:42:43.153Z,8.13
2016-10-24T11:43:43.147Z,7.82
2016-10-24T11:44:43.150Z,7.76
2016-10-24T11:45:43.112Z,7.71
2016-10-24T11:46:43.130Z,7.74
2016-10-24T11:47:43.103Z,7.57
2016-10-24T11:48:43.086Z,7
2016-10-24T11:49:43.092Z,7.45
2016-10-24T11:50:43.076Z,7.5
2016-10-24T11:51:43.057Z,7.67
2016-10-24T11:52:43.045Z,7.55
2016-10-24T11:53:43.066Z,7.57
2016-10-24T11:54:43.040Z,7.52
2016-10-24T11:55:43.029Z,7.67
2016-10-24T11:56:43.012Z,7.71
2016-10-24T11:57:43.012Z,7.62
2016-10-24T11:58:42.992Z,7.52
2016-10-24T11:59:42.982Z,7.52
2016-10-24T12:00:42.994Z,7.57
2016-10-24T12:01:42.947Z,7.57
2016-10-24T12:02:42.962Z,7.39
2016-10-24T12:03:42.947Z,7.37
2016-10-24T12:04:42.957Z,7.47
2016-10-24T12:05:42.933Z,7.27
2016-10-24T12:06:42.913Z,7.77
2016-10-24T12:07:42.910Z,7.99
2016-10-24T12:08:42.892Z,8
2016-10-24T12:09:42.880Z,8
2016-10-24T12:10:42.869Z,8.06
2016-10-24T12:11:42.857Z,8.34
2016-10-24T12:12:42.839Z,7.74
2016-10-24T12:13:42.842Z,8.02
2016-10-24T12:14:42.840Z,7.76
2016-10-24T12:15:42.814Z,7.85
2016-10-24T12:16:42.797Z,7.74
2016-10-24T12:17:42.791Z,7.44
2016-10-24T12:18:42.768Z,7.71
2016-10-24T12:19:42.757Z,8.04
2016-10-24T12:20:42.775Z,8.34
2016-10-24T12:21:42.738Z,8.32
2016-10-24T12:22:42.737Z,8.28
2016-10-24T12:23:42.725Z,8.4
2016-10-24T12:24:42.732Z,8.07
2016-10-24T12:25:42.707Z,8.14
2016-10-24T12:26:42.715Z,8.64
2016-10-24T12:27:42.697Z,8.57
2016-10-24T12:28:42.682Z,7.99
2016-10-24T12:29:42.665Z,8.29
2016-10-24T12:30:42.658Z,8.55
2016-10-24T12:31:42.660Z,8.55
2016-10-24T12:32:42.641Z,8.61
2016-10-24T12:33:42.625Z,8.36
2016-10-24T12:34:42.633Z,8.55
2016-10-24T12:35:42.606Z,8.42
2016-10-24T12:36:42.575Z,8.17
2016-10-24T12:37:42.567Z,8.03
2016-10-24T12:38:42.567Z,7.44
2016-10-24T12:39:42.576Z,7.04
2016-10-24T12:40:42.591Z,7.16
2016-10-24T12:41:42.540Z,7.47
2016-10-24T12:42:42.546Z,7.77
2016-10-24T12:43:42.521Z,8.37
2016-10-24T12:44:42.518Z,8.65
2016-10-24T12:45:42.525Z,8.6
2016-10-24T12:46:42.516Z,8.52
2016-10-24T12:47:42.479Z,8.71
2016-10-24T12:48:42.462Z,8.86
2016-10-24T12:49:42.453Z,8.7
2016-10-24T12:50:42.456Z,8.86
2016-10-24T12:51:42.439Z,9.12
2016-10-24T12:52:42.417Z,8.83
2016-10-24T12:53:42.424Z,9.01
2016-10-24T12:54:42.740Z,8.76
2016-10-24T12:55:42.422Z,8.71
2016-10-24T12:56:42.383Z,8.75
2016-10-24T12:57:42.392Z,8.61
2016-10-24T12:58:42.384Z,8.7
2016-10-24T12:59:42.347Z,8.68
2016-10-24T13:00:42.385Z,8.91
2016-10-24T13:01:42.367Z,8.25
2016-10-24T13:02:42.320Z,8.31
2016-10-24T13:03:42.333Z,8.49
2016-10-24T13:04:42.316Z,8.4
2016-10-24T13:05:42.320Z,8.32
2016-10-24T13:06:42.289Z,8.46
2016-10-24T13:07:42.281Z,8.45
2016-10-24T13:08:42.306Z,8.64
2016-10-24T13:09:42.261Z,8.63
2016-10-24T13:10:42.254Z,8.73
2016-10-24T13:11:42.252Z,8.61
2016-10-24T13:12:42.226Z,8.61
2016-10-24T13:13:42.214Z,8.37
2016-10-24T13:14:42.227Z,8
2016-10-24T13:15:42.201Z,7.81
2016-10-24T13:16:42.242Z,7.96
2016-10-24T13:17:42.171Z,7.89
2016-10-24T13:18:42.169Z,7.82
2016-10-24T13:19:42.165Z,8.03
2016-10-24T13:20:42.196Z,7.77
2016-10-24T13:21:42.182Z,7.88
2016-10-24T13:22:42.133Z,8.07
2016-10-24T13:23:42.111Z,8
2016-10-24T13:24:42.103Z,7.89
2016-10-24T13:25:42.122Z,7.5
2016-10-24T13:26:42.072Z,7.6
2016-10-24T13:27:42.063Z,7.54
2016-10-24T13:28:42.083Z,7.41
2016-10-24T13:29:42.080Z,7.24
2016-10-24T13:30:42.045Z,7.23
2016-10-24T13:31:42.050Z,6.96
2016-10-24T13:32:42.094Z,6.96
2016-10-24T13:33:42.011Z,6.97
2016-10-24T13:34:41.993Z,7.18
2016-10-24T13:35:41.993Z,7.6
2016-10-24T13:36:41.980Z,7.55
2016-10-24T13:37:41.991Z,7.88
2016-10-24T13:38:41.968Z,8.24
2016-10-24T13:39:41.940Z,8.02
2016-10-24T13:40:41.942Z,7.77
2016-10-24T13:41:41.948Z,7.29
2016-10-24T13:42:41.942Z,7.39
2016-10-24T13:43:41.926Z,7.73
2016-10-24T13:44:41.912Z,7.92
2016-10-24T13:45:41.882Z,8.18
2016-10-24T13:46:41.868Z,8.27
2016-10-24T13:47:41.863Z,7.88
2016-10-24T13:48:41.847Z,7.88
2016-10-24T13:49:41.848Z,7.63
2016-10-24T13:50:41.881Z,7.86
2016-10-24T13:51:41.841Z,7.84
2016-10-24T13:52:41.812Z,8.27
2016-10-24T13:53:41.840Z,8.31
2016-10-24T13:54:41.786Z,8.37
2016-10-24T13:55:41.790Z,8.47
2016-10-24T13:56:42.128Z,8.61
2016-10-24T13:57:41.784Z,8.54
2016-10-24T13:58:41.760Z,8.47
2016-10-24T13:59:41.767Z,8.39
2016-10-24T14:00:41.737Z,8.24
2016-10-24T14:01:41.725Z,8.34
2016-10-24T14:02:41.702Z,8.4
2016-10-24T14:03:41.717Z,8.36
2016-10-24T14:04:41.712Z,8.58
2016-10-24T14:05:41.706Z,8.67
2016-10-24T14:06:41.687Z,8.83
2016-10-24T14:07:41.991Z,8.83
2016-10-24T14:08:41.644Z,8.47
2016-10-24T14:09:41.650Z,7.91
2016-10-24T14:10:41.662Z,8.03
2016-10-24T14:11:41.627Z,7.79
2016-10-24T14:12:41.624Z,7.71
2016-10-24T14:13:41.595Z,7.73
2016-10-24T14:14:41.603Z,7.76
2016-10-24T14:15:41.593Z,7.81
2016-10-24T14:16:41.579Z,7.7
2016-10-24T14:17:41.553Z,7.55
2016-10-24T14:18:41.561Z,7.6
2016-10-24T14:19:41.561Z,7.55
2016-10-24T14:20:41.539Z,7.51
2016-10-24T14:21:41.543Z,7.44
2016-10-24T14:22:41.501Z,7.42
2016-10-24T14:23:41.510Z,7.37
2016-10-24T14:24:41.503Z,7.33
2016-10-24T14:25:41.492Z,7.29
2016-10-24T14:26:41.495Z,7.27
2016-10-24T14:27:41.490Z,7.34
2016-10-24T14:28:41.474Z,7.19
2016-10-24T14:29:41.451Z,7.3
2016-10-24T14:30:41.454Z,7.19
2016-10-24T14:31:41.445Z,7.19
2016-10-24T14:32:41.412Z,7.26
2016-10-24T14:33:41.406Z,7.33
2016-10-24T14:34:41.436Z,7.44
2016-10-24T14:35:41.382Z,7.33
2016-10-24T14:36:41.381Z,7.34
2016-10-24T14:37:41.362Z,7.42
2016-10-24T14:38:41.334Z,7.52
2016-10-24T14:39:41.337Z,7.39
2016-10-24T14:40:41.352Z,7.41
2016-10-24T14:41:41.324Z,7.6
2016-10-24T14:42:41.308Z,7.76
2016-10-24T14:43:41.296Z,7.62
2016-10-24T14:44:41.291Z,7.52
2016-10-24T14:45:41.286Z,7.09
2016-10-24T14:46:41.269Z,7.05
2016-10-24T14:47:41.251Z,7.04
2016-10-24T14:48:41.241Z,7.11
2016-10-24T14:49:41.233Z,7.07
2016-10-24T14:50:41.240Z,7.07
2016-10-24T14:51:41.209Z,7
2016-10-24T14:52:41.202Z,7.01
2016-10-24T14:53:41.189Z,6.99
2016-10-24T14:54:41.184Z,7.19
2016-10-24T14:55:41.172Z,7.11
2016-10-24T14:56:41.175Z,7.11
2016-10-24T14:57:41.150Z,7.12
2016-10-24T14:58:41.141Z,7.18
2016-10-24T14:59:41.138Z,7.15
2016-10-24T15:00:41.118Z,7.09
2016-10-24T15:01:41.105Z,7.19
2016-10-24T15:02:41.103Z,6.99
2016-10-24T15:03:41.066Z,7
2016-10-24T15:04:41.084Z,6.99
2016-10-24T15:05:41.071Z,7.09
2016-10-24T15:06:41.031Z,6.97
2016-10-24T15:07:41.036Z,6.96
2016-10-24T15:08:41.045Z,7.05
2016-10-24T15:09:41.018Z,7.12
2016-10-24T15:10:41.019Z,7.04
2016-10-24T15:11:40.995Z,7.14
2016-10-24T15:12:41.005Z,7.14
2016-10-24T15:13:40.994Z,7.18
2016-10-24T15:14:40.963Z,7.18
2016-10-24T15:15:40.952Z,7.19
2016-10-24T15:16:40.934Z,7.18
2016-10-24T15:17:40.935Z,7.19
2016-10-24T15:18:40.905Z,7.27
2016-10-24T15:19:40.915Z,7.19
2016-10-24T15:20:40.905Z,7.14
2016-10-24T15:21:40.874Z,7.14
2016-10-24T15:22:40.874Z,7.16
2016-10-24T15:23:40.888Z,7.26
2016-10-24T15:24:40.842Z,7.26
2016-10-24T15:25:40.851Z,7.42
2016-10-24T15:26:40.853Z,7.34
2016-10-24T15:27:40.821Z,7.21
2016-10-24T15:28:40.795Z,7.15
2016-10-24T15:29:40.806Z,7.14
2016-10-24T15:30:40.777Z,7.04
2016-10-24T15:31:40.776Z,7.01
2016-10-24T15:32:40.780Z,7.08
2016-10-24T15:33:40.755Z,7.04
2016-10-24T15:34:40.752Z,6.97
2016-10-24T15:35:40.750Z,6.97
2016-10-24T15:36:40.722Z,6.87
2016-10-24T15:37:40.702Z,6.82
2016-10-24T15:38:40.692Z,6.72
2016-10-24T15:39:40.678Z,6.75
2016-10-24T15:40:40.695Z,6.72
2016-10-24T15:41:40.656Z,6.68
2016-10-24T15:42:40.681Z,6.82
2016-10-24T15:43:40.704Z,6.82
2016-10-24T15:44:40.694Z,6.89
2016-10-24T15:45:40.635Z,6.81
2016-10-24T15:46:40.613Z,6.69
2016-10-24T15:47:40.668Z,6.78
2016-10-24T15:48:40.589Z,6.75
2016-10-24T15:49:40.588Z,6.69
2016-10-24T15:50:40.587Z,6.69
2016-10-24T15:51:40.552Z,6.65
2016-10-24T15:52:40.589Z,6.6
2016-10-24T15:53:40.568Z,6.51
2016-10-24T15:54:40.552Z,6.53
2016-10-24T15:55:40.520Z,6.57
2016-10-24T15:56:40.510Z,6.54
2016-10-24T15:57:40.507Z,6.53
2016-10-24T15:58:40.487Z,6.51
2016-10-24T15:59:40.488Z,6.53
2016-10-24T16:00:40.448Z,6.51
2016-10-24T16:01:40.474Z,6.55
2016-10-24T16:02:40.441Z,6.48
2016-10-24T16:03:40.421Z,6.42
2016-10-24T16:04:40.436Z,6.51
2016-10-24T16:05:40.393Z,6.45
2016-10-24T16:06:40.383Z,6.45
2016-10-24T16:07:40.377Z,6.53
2016-10-24T16:08:40.365Z,6.48
2016-10-24T16:09:40.363Z,6.46
2016-10-24T16:10:40.363Z,6.51
2016-10-24T16:11:40.670Z,6.58
2016-10-24T16:12:40.349Z,6.53
2016-10-24T16:13:40.334Z,6.57
2016-10-24T16:14:40.328Z,6.53
2016-10-24T16:15:40.309Z,6.39
2016-10-24T16:16:40.284Z,6.46
2016-10-24T16:17:40.273Z,6.48
2016-10-24T16:18:40.255Z,6.5
2016-10-24T16:19:40.252Z,6.54
2016-10-24T16:20:40.235Z,6.57
2016-10-24T16:21:40.244Z,6.54
2016-10-24T16:22:40.216Z,6.58
2016-10-24T16:23:40.216Z,6.54
2016-10-24T16:24:40.214Z,6.5
2016-10-24T16:25:40.169Z,6.43
2016-10-24T16:26:40.174Z,6.54
2016-10-24T16:27:40.470Z,6.64
2016-10-24T16:28:40.148Z,6.57
2016-10-24T16:29:40.134Z,6.69
2016-10-24T16:30:40.127Z,6.64
2016-10-24T16:31:40.114Z,6.63
2016-10-24T16:32:40.111Z,6.54
2016-10-24T16:33:40.098Z,6.54
2016-10-24T16:34:40.073Z,6.39
2016-10-24T16:35:40.091Z,6.46
2016-10-24T16:36:40.075Z,6.58
2016-10-24T16:37:40.044Z,6.61
2016-10-24T16:38:40.048Z,6.72
2016-10-24T16:39:40.039Z,6.73
2016-10-24T16:40:40.022Z,6.58
2016-10-24T16:41:40.022Z,6.58
2016-10-24T16:42:39.980Z,6.63
2016-10-24T16:43:39.982Z,6.68
2016-10-24T16:44:39.987Z,6.65
2016-10-24T16:45:39.961Z,6.64
2016-10-24T16:46:39.956Z,6.48
2016-10-24T16:47:39.951Z,6.54
2016-10-24T16:48:39.938Z,6.58
2016-10-24T16:49:39.915Z,6.63
2016-10-24T16:50:39.897Z,6.71
2016-10-24T16:51:39.899Z,6.68
2016-10-24T16:52:39.897Z,6.65
2016-10-24T16:53:40.082Z,6.65
2016-10-24T16:54:39.846Z,6.61
2016-10-24T16:55:39.876Z,6.6
2016-10-24T16:56:39.838Z,6.57
2016-10-24T16:57:39.832Z,6.55
2016-10-24T16:58:39.808Z,6.65
2016-10-24T16:59:39.802Z,6.61
2016-10-24T17:00:39.791Z,6.6
2016-10-24T17:01:40.105Z,6.71
2016-10-24T17:02:40.083Z,6.73
2016-10-24T17:03:39.744Z,6.75
2016-10-24T17:04:39.747Z,6.72
2016-10-24T17:05:39.736Z,6.73
2016-10-24T17:06:39.724Z,6.72
2016-10-24T17:07:39.718Z,6.72
2016-10-24T17:08:39.707Z,6.65
2016-10-24T17:09:39.695Z,6.76
2016-10-24T17:10:39.690Z,6.76
2016-10-24T17:11:39.692Z,6.71
2016-10-24T17:12:39.672Z,6.76
2016-10-24T17:13:39.640Z,6.68
2016-10-24T17:14:39.644Z,6.71
2016-10-24T17:15:39.643Z,6.64
2016-10-24T17:16:39.638Z,6.6
2016-10-24T17:17:39.610Z,6.54
2016-10-24T17:18:39.589Z,6.64
2016-10-24T17:19:39.601Z,6.69
2016-10-24T17:20:39.579Z,6.64
2016-10-24T17:21:39.560Z,6.69
2016-10-24T17:22:39.545Z,6.71
2016-10-24T17:23:39.553Z,6.65
2016-10-24T17:24:39.531Z,6.64
2016-10-24T17:25:39.537Z,6.58
2016-10-24T17:26:39.527Z,6.73
2016-10-24T17:27:39.503Z,6.58
2016-10-24T17:28:39.486Z,6.69
2016-10-24T17:29:39.483Z,6.55
2016-10-24T17:30:39.481Z,6.63
2016-10-24T17:31:39.451Z,6.6
2016-10-24T17:32:39.444Z,6.54
2016-10-24T17:33:39.423Z,6.55
2016-10-24T17:34:39.431Z,6.68
2016-10-24T17:35:39.424Z,6.69
2016-10-24T17:36:39.385Z,6.75
2016-10-24T17:37:39.388Z,6.69
2016-10-24T17:38:39.374Z,6.68
2016-10-24T17:39:39.369Z,6.61
2016-10-24T17:40:39.366Z,6.68
2016-10-24T17:41:39.341Z,6.64
2016-10-24T17:42:39.318Z,6.73
2016-10-24T17:43:39.317Z,6.63
2016-10-24T17:44:39.526Z,6.69
2016-10-24T17:45:39.295Z,6.57
2016-10-24T17:46:39.302Z,6.5
2016-10-24T17:47:39.464Z,6.57
2016-10-24T17:48:39.267Z,6.61
2016-10-24T17:49:39.237Z,6.71
2016-10-24T17:50:39.228Z,6.64
2016-10-24T17:51:39.244Z,6.69
2016-10-24T17:52:39.211Z,6.71
2016-10-24T17:53:39.207Z,6.69
2016-10-24T17:54:39.216Z,6.54
2016-10-24T17:55:39.183Z,6.51
2016-10-24T17:56:39.183Z,6.55
2016-10-24T17:57:39.169Z,6.6
2016-10-24T17:58:39.143Z,6.73
2016-10-24T17:59:39.138Z,6.71
2016-10-24T18:00:39.145Z,6.61
2016-10-24T18:01:39.103Z,6.73
2016-10-24T18:02:39.105Z,6.75
2016-10-24T18:03:39.108Z,6.72
2016-10-24T18:04:39.070Z,6.68
2016-10-24T18:05:39.098Z,6.75
2016-10-24T18:06:39.084Z,6.75
2016-10-24T18:07:39.074Z,6.72
2016-10-24T18:08:39.052Z,6.72
2016-10-24T18:09:39.018Z,6.69
2016-10-24T18:10:39.232Z,6.57
2016-10-24T18:11:39.016Z,6.58
2016-10-24T18:12:38.997Z,6.65
2016-10-24T18:13:38.994Z,6.6
2016-10-24T18:14:38.994Z,6.57
2016-10-24T18:15:38.987Z,6.58
2016-10-24T18:16:39.172Z,6.68
2016-10-24T18:17:38.959Z,6.6
2016-10-24T18:18:39.155Z,6.71
2016-10-24T18:19:38.911Z,6.68
2016-10-24T18:20:38.936Z,6.64
2016-10-24T18:21:38.905Z,6.65
2016-10-24T18:22:38.894Z,6.72
2016-10-24T18:23:38.887Z,6.76
2016-10-24T18:24:38.891Z,6.73
2016-10-24T18:25:38.848Z,6.73
2016-10-24T18:26:38.845Z,6.63
2016-10-24T18:27:38.874Z,6.63
2016-10-24T18:28:38.834Z,6.65
2016-10-24T18:29:38.811Z,6.65
2016-10-24T18:30:39.015Z,6.58
2016-10-24T18:31:38.818Z,6.58
2016-10-24T18:32:38.777Z,6.65
2016-10-24T18:33:38.755Z,6.64
2016-10-24T18:34:38.769Z,6.63
2016-10-24T18:35:38.744Z,6.61
2016-10-24T18:36:38.726Z,6.6
2016-10-24T18:37:38.725Z,6.54
2016-10-24T18:38:38.713Z,6.51
2016-10-24T18:39:38.725Z,6.55
2016-10-24T18:40:38.692Z,6.57
2016-10-24T18:41:38.705Z,6.58
2016-10-24T18:42:38.958Z,6.51
2016-10-24T18:43:38.662Z,6.53
2016-10-24T18:44:38.653Z,6.43
2016-10-24T18:45:38.632Z,6.3
2016-10-24T18:46:38.910Z,6.35
2016-10-24T18:47:38.618Z,6.54
2016-10-24T18:48:38.593Z,6.53
2016-10-24T18:49:38.571Z,6.45
2016-10-24T18:50:38.572Z,6.58
2016-10-24T18:51:38.570Z,6.53
2016-10-24T18:52:38.544Z,6.46
2016-10-24T18:53:38.543Z,6.58
2016-10-24T18:54:38.538Z,6.51
2016-10-24T18:55:38.560Z,6.57
2016-10-24T18:56:38.511Z,6.51
2016-10-24T18:57:38.501Z,6.53
2016-10-24T18:58:38.494Z,6.54
2016-10-24T18:59:38.483Z,6.5
2016-10-24T19:00:38.470Z,6.6
2016-10-24T19:01:38.445Z,6.48
2016-10-24T19:02:38.443Z,6.54
2016-10-24T19:03:38.436Z,6.63
2016-10-24T19:04:38.419Z,6.54
2016-10-24T19:05:38.432Z,6.6
2016-10-24T19:06:38.392Z,6.53
2016-10-24T19:07:38.384Z,6.61
2016-10-24T19:08:38.360Z,6.58
2016-10-24T19:09:38.352Z,6.54
2016-10-24T19:10:38.358Z,6.6
2016-10-24T19:11:38.325Z,6.64
2016-10-24T19:12:38.328Z,6.65
2016-10-24T19:13:38.311Z,6.6
2016-10-24T19:14:38.297Z,6.68
2016-10-24T19:15:38.300Z,6.68
2016-10-24T19:16:38.287Z,6.69
2016-10-24T19:17:38.268Z,6.64
2016-10-24T19:18:38.263Z,6.68
2016-10-24T19:19:38.272Z,6.73
2016-10-24T19:20:38.447Z,6.6
2016-10-24T19:21:38.243Z,6.58
2016-10-24T19:22:38.222Z,6.63
2016-10-24T19:23:38.201Z,6.73
2016-10-24T19:24:38.184Z,6.63
2016-10-24T19:25:38.194Z,6.58
2016-10-24T19:26:38.227Z,6.6
2016-10-24T19:27:38.171Z,6.57
2016-10-24T19:28:38.169Z,6.53
2016-10-24T19:29:38.143Z,6.55
2016-10-24T19:30:38.120Z,6.53
2016-10-24T19:31:38.134Z,6.5
2016-10-24T19:32:38.090Z,6.53
2016-10-24T19:33:38.097Z,6.46
2016-10-24T19:34:38.100Z,6.55
2016-10-24T19:35:38.074Z,6.43
2016-10-24T19:36:38.057Z,6.48
2016-10-24T19:37:38.042Z,6.73
2016-10-24T19:38:38.047Z,6.78
2016-10-24T19:39:38.025Z,6.72
2016-10-24T19:40:38.033Z,6.71
2016-10-24T19:41:38.004Z,6.65
2016-10-24T19:42:38.091Z,6.69
2016-10-24T19:43:37.996Z,6.71
2016-10-24T19:44:37.983Z,6.69
2016-10-24T19:45:37.950Z,6.73
2016-10-24T19:46:37.969Z,6.61
2016-10-24T19:47:37.955Z,6.64
2016-10-24T19:48:37.916Z,6.57
2016-10-24T19:49:37.927Z,6.6
2016-10-24T19:50:37.904Z,6.55
2016-10-24T19:51:37.915Z,6.5
2016-10-24T19:52:37.900Z,6.42
2016-10-24T19:53:37.894Z,6.46
2016-10-24T19:54:37.855Z,6.45
2016-10-24T19:55:38.081Z,6.4
2016-10-24T19:56:37.843Z,6.51
2016-10-24T19:57:37.825Z,6.39
2016-10-24T19:58:37.811Z,6.35
2016-10-24T19:59:37.802Z,6.25
2016-10-24T20:00:37.804Z,6.28
2016-10-24T20:01:37.803Z,6.45
2016-10-24T20:02:37.780Z,6.45
2016-10-24T20:03:37.748Z,6.46
2016-10-24T20:04:37.735Z,6.57
2016-10-24T20:05:37.742Z,6.46
2016-10-24T20:06:37.728Z,6.55
2016-10-24T20:07:37.749Z,6.54
2016-10-24T20:08:37.706Z,6.73
2016-10-24T20:09:37.684Z,6.58
2016-10-24T20:10:37.693Z,6.69
2016-10-24T20:11:37.674Z,6.75
2016-10-24T20:12:37.648Z,6.72
2016-10-24T20:13:37.870Z,6.65
2016-10-24T20:14:37.640Z,6.57
2016-10-24T20:15:37.613Z,6.55
2016-10-24T20:16:37.606Z,6.54
2016-10-24T20:17:37.583Z,6.57
2016-10-24T20:18:37.596Z,6.63
2016-10-24T20:19:37.576Z,6.58
2016-10-24T20:20:37.569Z,6.51
2016-10-24T20:21:37.539Z,6.55
2016-10-24T20:22:37.558Z,6.54
2016-10-24T20:23:37.577Z,6.68
2016-10-24T20:24:37.540Z,6.69
2016-10-24T20:25:37.711Z,6.82
2016-10-24T20:26:37.688Z,6.68
2016-10-24T20:27:37.740Z,6.72
2016-10-24T20:28:37.463Z,6.64
2016-10-24T20:29:37.462Z,6.78
2016-10-24T20:30:37.476Z,6.68
2016-10-24T20:31:37.435Z,6.73
2016-10-24T20:32:37.463Z,6.78
2016-10-24T20:33:37.725Z,6.68
2016-10-24T20:34:37.412Z,6.72
2016-10-24T20:35:37.394Z,6.86